26.0°F
Current conditions from King Hill
Updated every 5 minutes
 
  Thursday December 18, 2014

Station Historical Data
Daily Summary for October 1, 2011 Units:  Metric    English   Both
« Previous Day
Next Day »
Daily Weekly Monthly Yearly Custom
  High: Low: Average:
Temperature: 14.2 °C 4.5 °C 7.2 °C
Dew Point: 11.8 °C 3.4 °C 6 °C
Humidity: 95% 82% 92%
Wind Speed: 11.3km/h 1.6km/h 3.7km/h
Wind Gust: 27.4km/h - -
Wind- - NE
Pressure: 1012.8 hPa 1004.6 hPa -
Precipitation: 15.5 mm    
Historical Graphs
 
 
Tabular Data for October 1, 2011
Time Temperature Dew Point Pressure Wind Wind Speed Wind Gust Humidity Daily Rainfall
00:00 14.2 °C 11.7 °C 1004.6 hPa North 1.6 km/h 9.7 km/h 85% 0.3 mm
00:05 14.1 °C 11.6 °C 1004.6 hPa Calm   9.7 km/h 85% 0 mm
00:10 14.1 °C 11.6 °C 1004.6 hPa Calm   4.8 km/h 85% 0 mm
00:15 14.1 °C 11.6 °C 1004.6 hPa Calm   1.6 km/h 85% 0 mm
00:20 14.1 °C 11.8 °C 1004.6 hPa Calm   1.6 km/h 86% 0 mm
00:25 14.1 °C 11.6 °C 1004.6 hPa NE 1.6 km/h 6.4 km/h 85% 0 mm
00:30 14.1 °C 11.4 °C 1004.6 hPa Calm   9.7 km/h 84% 0 mm
00:35 14.2 °C 11.6 °C 1004.6 hPa NNE 1.6 km/h 9.7 km/h 84% 0 mm
00:40 14.2 °C 11.6 °C 1004.6 hPa NNE 1.6 km/h 11.3 km/h 84% 0 mm
00:45 14.2 °C 11.4 °C 1004.6 hPa Calm   11.3 km/h 83% 0 mm
00:50 14.2 °C 11.4 °C 1005 hPa Calm   9.7 km/h 83% 0 mm
00:55 14.2 °C 11.3 °C 1005 hPa Calm   9.7 km/h 83% 0 mm
01:00 14.1 °C 11.3 °C 1004.6 hPa Calm   6.4 km/h 83% 0 mm
01:05 14.1 °C 11.3 °C 1005 hPa NE 1.6 km/h 6.4 km/h 83% 0 mm
01:10 14.1 °C 11.1 °C 1004.6 hPa NE 1.6 km/h 11.3 km/h 82% 0 mm
01:15 14.1 °C 11.1 °C 1004.6 hPa NNE 1.6 km/h 11.3 km/h 82% 0 mm
01:20 14.1 °C 11.1 °C 1005 hPa Calm   6.4 km/h 82% 0 mm
01:25 14.1 °C 11.2 °C 1004.6 hPa Calm   4.8 km/h 83% 0 mm
01:30 14 °C 11.2 °C 1005 hPa Calm   1.6 km/h 83% 0 mm
01:35 14 °C 11.2 °C 1005 hPa NE 1.6 km/h 6.4 km/h 83% 0 mm
01:40 13.9 °C 11.1 °C 1005 hPa Calm   12.9 km/h 83% 0 mm
01:45 13.9 °C 11.1 °C 1005 hPa Calm   12.9 km/h 83% 0 mm
01:50 13.8 °C 11.2 °C 1005.3 hPa NE 1.6 km/h 9.7 km/h 84% 0 mm
01:55 13.7 °C 11.1 °C 1005.3 hPa NNE 1.6 km/h 9.7 km/h 84% 0 mm
02:00 13.6 °C 11.1 °C 1005.3 hPa North 3.2 km/h 12.9 km/h 85% 0 mm
02:05 13.4 °C 11 °C 1005.3 hPa NNE 1.6 km/h 12.9 km/h 85% 0 mm
02:10 13.3 °C 11 °C 1005.3 hPa Calm   9.7 km/h 86% 0 mm
02:15 13.2 °C 11.1 °C 1005.6 hPa NNE 1.6 km/h 12.9 km/h 87% 0 mm
02:20 13.2 °C 11.1 °C 1005.6 hPa Calm   14.5 km/h 87% 0 mm
02:30 13.1 °C 11.2 °C 1005.3 hPa Calm   6.4 km/h 88% 0 mm
02:35 13.1 °C 11.1 °C 1005.3 hPa North 1.6 km/h 11.3 km/h 88% 0 mm
02:40 13.1 °C 11.3 °C 1005.3 hPa NNE 1.6 km/h 11.3 km/h 89% 0 mm
02:45 13.1 °C 11.3 °C 1005.3 hPa NNE 1.6 km/h 9.7 km/h 89% 0 mm
02:50 13 °C 11.2 °C 1005.3 hPa Calm   11.3 km/h 89% 0 mm
02:55 12.9 °C 11.2 °C 1005.6 hPa NNE 1.6 km/h 19.3 km/h 89% 0 mm
03:00 12.9 °C 11.2 °C 1005.6 hPa Calm   19.3 km/h 89% 0 mm
03:05 12.9 °C 11.1 °C 1005.6 hPa Calm   12.9 km/h 89% 0 mm
03:10 12.8 °C 11.2 °C 1005.6 hPa NNE 3.2 km/h 11.3 km/h 90% 0 mm
03:15 12.7 °C 11.1 °C 1005.6 hPa NNW 1.6 km/h 11.3 km/h 90% 0 mm
03:20 12.7 °C 11.1 °C 1005.6 hPa Calm   11.3 km/h 90% 0 mm
03:25 12.6 °C 10.9 °C 1005.6 hPa Calm   8 km/h 90% 0 mm
03:30 12.4 °C 10.8 °C 1005.6 hPa NE 1.6 km/h 9.7 km/h 90% 0 mm
03:40 12.1 °C 10.4 °C 1006 hPa Calm   11.3 km/h 90% 0 mm
03:45 11.9 °C 10.3 °C 1005.6 hPa NNE 3.2 km/h 11.3 km/h 90% 0 mm
03:50 11.8 °C 10.3 °C 1006 hPa Calm   11.3 km/h 91% 0 mm
03:55 11.7 °C 10.2 °C 1005.6 hPa Calm   11.3 km/h 91% 0 mm
04:00 11.6 °C 10.1 °C 1005.6 hPa Calm     91% 0 mm
04:05 11.3 °C 9.9 °C 1005.6 hPa Calm   8 km/h 91% 0 mm
04:10 11.1 °C 9.7 °C 1006 hPa NNE 1.6 km/h 9.7 km/h 91% 0 mm
04:15 10.9 °C 9.6 °C 1006 hPa North 1.6 km/h 12.9 km/h 91% 0 mm
04:20 10.8 °C 9.4 °C 1006 hPa Calm   12.9 km/h 91% 0 mm
04:25 10.7 °C 9.3 °C 1006 hPa Calm   14.5 km/h 91% 0 mm
04:30 10.6 °C 9.2 °C 1006 hPa NE 1.6 km/h 14.5 km/h 91% 0 mm
04:35 10.4 °C 9.1 °C 1006 hPa Calm   11.3 km/h 91% 0 mm
04:40 10.3 °C 8.9 °C 1006 hPa NNE 1.6 km/h 11.3 km/h 91% 0 mm
04:45 10.2 °C 8.8 °C 1006 hPa Calm   11.3 km/h 91% 0 mm
04:50 10 °C 8.6 °C 1006 hPa Calm   14.5 km/h 91% 0 mm
04:55 9.9 °C 8.5 °C 1006 hPa Calm   14.5 km/h 91% 0 mm
05:00 9.8 °C 8.4 °C 1006.3 hPa NE 3.2 km/h 12.9 km/h 91% 0 mm
05:05 9.7 °C 8.3 °C 1006.3 hPa Calm   11.3 km/h 91% 0 mm
05:10 9.6 °C 8.2 °C 1006.3 hPa NNE 1.6 km/h 12.9 km/h 91% 0 mm
05:15 9.6 °C 8.2 °C 1006 hPa NNE 3.2 km/h 14.5 km/h 91% 0 mm
05:20 9.5 °C 8.1 °C 1005.6 hPa ENE 1.6 km/h 16.1 km/h 91% 0 mm
05:25 9.4 °C 8 °C 1005.6 hPa NNE 4.8 km/h 17.7 km/h 91% 0 mm
05:30 9.3 °C 7.9 °C 1005.6 hPa NE 6.4 km/h 19.3 km/h 91% 0 mm
05:35 9.2 °C 7.8 °C 1005.6 hPa North 3.2 km/h 19.3 km/h 91% 0 mm
05:40 8.9 °C 7.6 °C 1005.6 hPa North 4.8 km/h 12.9 km/h 91% 0 mm
05:45 8.8 °C 7.2 °C 1005.6 hPa NNE 4.8 km/h 25.7 km/h 90% 0 mm
05:50 8.7 °C 7.3 °C 1006 hPa Calm   25.7 km/h 91% 0 mm
05:55 8.6 °C 7 °C 1006 hPa Calm   12.9 km/h 90% 0 mm
06:00 8.4 °C 7.1 °C 1006 hPa NNE 1.6 km/h 12.9 km/h 91% 0.3 mm
06:05 8.3 °C 6.9 °C 1006 hPa NNE 1.6 km/h 9.7 km/h 91% 0.3 mm
06:10 8.3 °C 6.9 °C 1006 hPa NNE 4.8 km/h 16.1 km/h 91% 0.3 mm
06:15 8.2 °C 6.8 °C 1006 hPa NNE 4.8 km/h 16.1 km/h 91% 0.3 mm
06:20 8.1 °C 6.7 °C 1006 hPa NNE 3.2 km/h 14.5 km/h 91% 0.3 mm
06:25 8.1 °C 6.7 °C 1006 hPa NE 3.2 km/h 24.1 km/h 91% 0.3 mm
06:35 7.9 °C 6.5 °C 1006.3 hPa Calm   27.4 km/h 91% 0.3 mm
06:40 7.8 °C 6.4 °C 1006.3 hPa North 4.8 km/h 25.7 km/h 91% 0.3 mm
06:45 7.7 °C 6.3 °C 1006.3 hPa NNE 6.4 km/h 22.5 km/h 91% 0.3 mm
06:50 7.6 °C 6.2 °C 1006.7 hPa NNE 6.4 km/h 22.5 km/h 91% 0.5 mm
06:55 7.5 °C 6.1 °C 1006.7 hPa NNE 9.7 km/h 20.9 km/h 91% 0.5 mm
07:00 7.4 °C 6.1 °C 1006.7 hPa NE 6.4 km/h 20.9 km/h 91% 0.5 mm
07:05 7.3 °C 5.9 °C 1007 hPa NNE 9.7 km/h 20.9 km/h 91% 0.5 mm
07:10 7.2 °C 5.8 °C 1007 hPa NNE 6.4 km/h 24.1 km/h 91% 0.5 mm
07:15 7.2 °C 5.8 °C 1007 hPa North 6.4 km/h 24.1 km/h 91% 0.5 mm
07:20 7.1 °C 5.7 °C 1007 hPa NE 6.4 km/h 24.1 km/h 91% 0.5 mm
07:25 7.1 °C 5.7 °C 1007.3 hPa NE 4.8 km/h 24.1 km/h 91% 0.5 mm
07:30 7.1 °C 5.7 °C 1007.3 hPa NNE 6.4 km/h 20.9 km/h 91% 0.5 mm
07:40 6.9 °C 5.5 °C 1007.3 hPa NNE 4.8 km/h 27.4 km/h 91% 0.5 mm
07:45 6.8 °C 5.3 °C 1007.3 hPa NE 6.4 km/h 22.5 km/h 90% 0.5 mm
07:50 6.8 °C 5.3 °C 1007.7 hPa NE 6.4 km/h 22.5 km/h 90% 0.5 mm
07:55 6.7 °C 5.2 °C 1007.7 hPa NNE 4.8 km/h 22.5 km/h 90% 0.5 mm
08:00 6.7 °C 5.2 °C 1007.7 hPa NNE 3.2 km/h 22.5 km/h 90% 0.5 mm
08:05 6.6 °C 5.1 °C 1008 hPa NE 8 km/h 24.1 km/h 90% 0.5 mm
08:10 6.5 °C 5 °C 1008 hPa NNE 3.2 km/h 24.1 km/h 90% 0.5 mm
08:15 6.4 °C 4.9 °C 1008 hPa North 1.6 km/h 25.7 km/h 90% 0.5 mm
08:20 6.4 °C 4.9 °C 1008 hPa North 8 km/h 25.7 km/h 90% 0.5 mm
08:25 6.3 °C 4.7 °C 1007.7 hPa NNE 3.2 km/h 24.1 km/h 89% 0.5 mm
08:30 6.3 °C 4.6 °C 1008 hPa North 4.8 km/h 19.3 km/h 89% 0.5 mm
08:35 6.2 °C 4.6 °C 1008.4 hPa NE 3.2 km/h 17.7 km/h 89% 0.5 mm
08:40 6.2 °C 4.5 °C 1008.4 hPa NNE 3.2 km/h 19.3 km/h 89% 0.5 mm
08:45 6.1 °C 4.4 °C 1008.4 hPa NE 3.2 km/h 19.3 km/h 89% 0.5 mm
08:50 6.1 °C 4.4 °C 1008 hPa North 4.8 km/h 20.9 km/h 89% 0.5 mm
08:55 5.9 °C 4.4 °C 1008 hPa NNE 6.4 km/h 25.7 km/h 90% 0.8 mm
09:00 5.9 °C 4.4 °C 1008.4 hPa NNE 3.2 km/h 25.7 km/h 90% 0.8 mm
09:05 5.8 °C 4.3 °C 1008.4 hPa NNE 1.6 km/h 22.5 km/h 90% 0.8 mm
09:10 5.7 °C 4.2 °C 1008.4 hPa NNE 6.4 km/h 22.5 km/h 90% 1 mm
09:15 5.7 °C 4.2 °C 1008.7 hPa NE 8 km/h 20.9 km/h 90% 1 mm
09:20 5.6 °C 4.1 °C 1008.7 hPa NNE 6.4 km/h 20.9 km/h 90% 1 mm
09:25 5.5 °C 4.2 °C 1009 hPa NNE 6.4 km/h 20.9 km/h 91% 1 mm
09:30 5.4 °C 4.1 °C 1009 hPa North 1.6 km/h 17.7 km/h 91% 1 mm
09:35 5.4 °C 4.1 °C 1009 hPa NE 3.2 km/h 17.7 km/h 91% 1 mm
09:40 5.4 °C 4.1 °C 1009 hPa NNE 3.2 km/h 16.1 km/h 91% 1.5 mm
09:45 5.4 °C 4.1 °C 1009.7 hPa North 1.6 km/h 20.9 km/h 91% 1.8 mm
09:50 5.3 °C 4 °C 1009.7 hPa NNE 3.2 km/h 20.9 km/h 91% 2 mm
09:55 5.3 °C 3.9 °C 1010 hPa NNE 1.6 km/h 17.7 km/h 91% 2.3 mm
10:00 5.2 °C 3.9 °C 1010.4 hPa NNE 3.2 km/h 12.9 km/h 91% 2.5 mm
10:05 5.2 °C 3.8 °C 1009.7 hPa NNE 4.8 km/h 16.1 km/h 91% 2.8 mm
10:10 5.2 °C 3.8 °C 1009.7 hPa Calm   16.1 km/h 91% 3.3 mm
10:15 5.2 °C 4.1 °C 1010 hPa Calm   12.9 km/h 92% 4.1 mm
10:25 5.2 °C 4 °C 1010 hPa Calm   12.9 km/h 92% 4.6 mm
10:30 5.2 °C 4 °C 1010 hPa NE 4.8 km/h 19.3 km/h 92% 5.1 mm
10:35 5.1 °C 3.9 °C 1010 hPa Calm   19.3 km/h 92% 5.6 mm
10:40 5.1 °C 3.9 °C 1010.4 hPa NW 3.2 km/h 19.3 km/h 92% 5.8 mm
10:45 5 °C 3.8 °C 1010.4 hPa Calm   19.3 km/h 92% 6.1 mm
10:50 5 °C 3.8 °C 1010.4 hPa North 1.6 km/h 17.7 km/h 92% 6.4 mm
10:55 5 °C 3.9 °C 1010.4 hPa NNE 1.6 km/h 17.7 km/h 93% 6.4 mm
11:00 4.9 °C 3.7 °C 1010.4 hPa North 3.2 km/h 17.7 km/h 92% 6.6 mm
11:05 4.8 °C 3.7 °C 1010.4 hPa North 3.2 km/h 17.7 km/h 93% 6.6 mm
11:10 4.7 °C 3.7 °C 1010 hPa North 4.8 km/h 22.5 km/h 93% 6.6 mm
11:15 4.7 °C 3.7 °C 1010 hPa NNE 3.2 km/h 22.5 km/h 93% 6.9 mm
11:20 4.8 °C 3.7 °C 1010.4 hPa Calm   19.3 km/h 93% 6.9 mm
11:25 4.8 °C 3.7 °C 1010 hPa NE 9.7 km/h 20.9 km/h 93% 6.9 mm
11:30 4.7 °C 3.7 °C 1010 hPa NNE 6.4 km/h 24.1 km/h 93% 6.9 mm
11:40 4.7 °C 3.7 °C 1010 hPa NNW 1.6 km/h 22.5 km/h 93% 7.1 mm
11:45 4.7 °C 3.7 °C 1010 hPa NE 6.4 km/h 20.9 km/h 93% 7.1 mm
11:50 4.6 °C 3.6 °C 1010 hPa NNE 4.8 km/h 20.9 km/h 93% 7.1 mm
11:55 4.7 °C 3.6 °C 1010.4 hPa NNE 4.8 km/h 20.9 km/h 93% 7.1 mm
12:05 4.6 °C 3.5 °C 1010 hPa NNE 6.4 km/h 19.3 km/h 93% 7.1 mm
12:10 4.6 °C 3.6 °C 1010 hPa NNE 3.2 km/h 19.3 km/h 93% 7.1 mm
12:15 4.6 °C 3.5 °C 1010 hPa North 8 km/h 22.5 km/h 93% 7.1 mm
12:20 4.5 °C 3.4 °C 1010 hPa Calm   22.5 km/h 93% 7.1 mm
12:25 4.6 °C 3.6 °C 1010 hPa NNE 3.2 km/h 20.9 km/h 93% 7.1 mm
12:30 4.6 °C 3.5 °C 1010 hPa NNE 3.2 km/h 16.1 km/h 93% 7.1 mm
12:35 4.6 °C 3.5 °C 1010 hPa NE 1.6 km/h 16.1 km/h 93% 7.1 mm
12:40 4.7 °C 3.6 °C 1010 hPa NNE 3.2 km/h 14.5 km/h 93% 7.1 mm
12:45 4.7 °C 3.8 °C 1010 hPa NNE 4.8 km/h 20.9 km/h 94% 7.1 mm
12:50 4.8 °C 3.9 °C 1010 hPa North 1.6 km/h 20.9 km/h 94% 7.1 mm
12:55 4.8 °C 3.9 °C 1010 hPa NNE 1.6 km/h 12.9 km/h 94% 7.1 mm
13:00 4.8 °C 3.9 °C 1010 hPa NNE 4.8 km/h 17.7 km/h 94% 7.1 mm
13:05 4.8 °C 3.9 °C 1010 hPa NNE 1.6 km/h 17.7 km/h 94% 7.1 mm
13:10 4.9 °C 4 °C 1009.7 hPa Calm   14.5 km/h 94% 7.1 mm
13:15 4.9 °C 4.1 °C 1010 hPa Calm   14.5 km/h 94% 7.1 mm
13:20 5 °C 4.1 °C 1010 hPa NNE 3.2 km/h 14.5 km/h 94% 7.1 mm
13:25 5.1 °C 4.2 °C 1009.7 hPa NE 1.6 km/h 16.1 km/h 94% 7.1 mm
13:30 5.1 °C 4.2 °C 1010 hPa NNE 4.8 km/h 16.1 km/h 94% 7.1 mm
13:40 4.9 °C 4.1 °C 1010 hPa NNE 1.6 km/h 20.9 km/h 94% 7.4 mm
13:45 5 °C 4.1 °C 1009.7 hPa NNE 1.6 km/h 20.9 km/h 94% 7.4 mm
13:50 5.1 °C 4.2 °C 1009.7 hPa NE 1.6 km/h 19.3 km/h 94% 7.6 mm
13:55 5.1 °C 4.2 °C 1009.7 hPa NNE 1.6 km/h 16.1 km/h 94% 7.6 mm
14:00 5.2 °C 4.3 °C 1009.7 hPa NNE 3.2 km/h 20.9 km/h 94% 7.6 mm
14:05 5.2 °C 4.4 °C 1009.7 hPa NNE 6.4 km/h 20.9 km/h 95% 7.6 mm
14:10 5.1 °C 4.4 °C 1009.7 hPa NNE 6.4 km/h 20.9 km/h 95% 7.9 mm
14:15 5.2 °C 4.5 °C 1009.7 hPa ENE 1.6 km/h 20.9 km/h 95% 8.1 mm
14:20 5.2 °C 4.5 °C 1009.7 hPa NNE 3.2 km/h 19.3 km/h 95% 8.1 mm
14:30 5.2 °C 4.5 °C 1010 hPa NNE 1.6 km/h 17.7 km/h 95% 8.6 mm
14:35 5.2 °C 4.5 °C 1010 hPa NE 3.2 km/h 17.7 km/h 95% 8.6 mm
14:40 5.3 °C 4.6 °C 1010 hPa NNE 4.8 km/h 17.7 km/h 95% 8.6 mm
14:45 5.2 °C 4.5 °C 1010 hPa NE 9.7 km/h 19.3 km/h 95% 8.6 mm
14:50 5.2 °C 4.5 °C 1010 hPa NNE 8 km/h 22.5 km/h 95% 8.6 mm
14:55 5.2 °C 4.4 °C 1010 hPa Calm   22.5 km/h 95% 8.6 mm
15:00 5.3 °C 4.6 °C 1010 hPa NE 1.6 km/h 16.1 km/h 95% 8.6 mm
15:05 5.3 °C 4.6 °C 1010 hPa North 3.2 km/h 16.1 km/h 95% 8.6 mm
15:10 5.3 °C 4.4 °C 1010 hPa NNW 1.6 km/h 16.1 km/h 94% 8.6 mm
15:15 5.3 °C 4.4 °C 1010 hPa NNE 4.8 km/h 20.9 km/h 94% 8.9 mm
15:20 5.3 °C 4.4 °C 1010.4 hPa NNE 1.6 km/h 20.9 km/h 94% 8.9 mm
15:25 5.4 °C 4.7 °C 1010 hPa North 3.2 km/h 14.5 km/h 95% 8.9 mm
15:30 5.4 °C 4.7 °C 1010.4 hPa NNE 6.4 km/h 22.5 km/h 95% 9.1 mm
15:35 5.4 °C 4.5 °C 1010.7 hPa NNE 1.6 km/h 22.5 km/h 94% 9.1 mm
15:40 5.4 °C 4.5 °C 1010.7 hPa Calm   14.5 km/h 94% 9.1 mm
15:45 5.3 °C 4.4 °C 1010.7 hPa NNE 1.6 km/h 14.5 km/h 94% 9.1 mm
15:50 5.3 °C 4.4 °C 1010.7 hPa NNE 3.2 km/h 14.5 km/h 94% 9.4 mm
15:55 5.3 °C 4.6 °C 1010.7 hPa North 3.2 km/h 19.3 km/h 95% 9.4 mm
16:00 5.3 °C 4.6 °C 1010.7 hPa NNE 1.6 km/h 20.9 km/h 95% 9.4 mm
16:05 5.3 °C 4.6 °C 1010.7 hPa NNE 4.8 km/h 20.9 km/h 95% 9.7 mm
16:10 5.3 °C 4.6 °C 1010.7 hPa NNE 3.2 km/h 17.7 km/h 95% 9.7 mm
16:15 5.3 °C 4.6 °C 1010.7 hPa NNE 3.2 km/h 20.9 km/h 95% 9.7 mm
16:20 5.3 °C 4.6 °C 1010.4 hPa NNE 1.6 km/h 20.9 km/h 95% 9.7 mm
16:25 5.2 °C 4.5 °C 1010.7 hPa North 3.2 km/h 19.3 km/h 95% 9.7 mm
16:30 5.2 °C 4.5 °C 1010.7 hPa NNE 4.8 km/h 22.5 km/h 95% 9.7 mm
16:40 5.2 °C 4.3 °C 1011.1 hPa Calm   17.7 km/h 94% 9.9 mm
16:45 5.2 °C 4.4 °C 1011.1 hPa Calm   20.9 km/h 95% 9.9 mm
16:50 5.2 °C 4.5 °C 1011.1 hPa Calm   20.9 km/h 95% 10.2 mm
16:55 5.2 °C 4.5 °C 1011.1 hPa NNE 3.2 km/h 20.9 km/h 95% 10.2 mm
17:00 5.2 °C 4.4 °C 1011.1 hPa NNE 4.8 km/h 20.9 km/h 95% 10.4 mm
17:05 5.1 °C 4.4 °C 1011.1 hPa NNE 4.8 km/h 14.5 km/h 95% 10.7 mm
17:10 5.1 °C 4.4 °C 1011.4 hPa NNE 3.2 km/h 14.5 km/h 95% 10.7 mm
17:15 5.1 °C 4.4 °C 1011.4 hPa Calm   14.5 km/h 95% 10.9 mm
17:20 5.1 °C 4.4 °C 1011.1 hPa NNE 4.8 km/h 16.1 km/h 95% 10.9 mm
17:25 5.1 °C 4.4 °C 1011.1 hPa NE 3.2 km/h 16.1 km/h 95% 11.2 mm
17:30 5.1 °C 4.4 °C 1010.7 hPa NNE 1.6 km/h 14.5 km/h 95% 11.2 mm
17:40 5.2 °C 4.4 °C 1011.4 hPa North 3.2 km/h 16.1 km/h 95% 11.2 mm
17:45 5.1 °C 4.4 °C 1011.1 hPa North 3.2 km/h 16.1 km/h 95% 11.2 mm
17:50 5.1 °C 4.4 °C 1011.4 hPa NNE 1.6 km/h 16.1 km/h 95% 11.2 mm
17:55 5.1 °C 4.3 °C 1011.4 hPa Calm   20.9 km/h 95% 11.2 mm
18:00 5.1 °C 4.3 °C 1011.4 hPa NNE 11.3 km/h 27.4 km/h 95% 11.2 mm
18:05 5.1 °C 4.3 °C 1011.4 hPa NE 4.8 km/h 27.4 km/h 95% 11.2 mm
18:10 5 °C 4.3 °C 1011.7 hPa North 3.2 km/h 24.1 km/h 95% 11.2 mm
18:15 5 °C 4.3 °C 1011.7 hPa North 1.6 km/h 16.1 km/h 95% 11.4 mm
18:20 5 °C 4.3 °C 1011.7 hPa NE 3.2 km/h 16.1 km/h 95% 11.4 mm
18:25 5 °C 4.3 °C 1011.7 hPa NNE 3.2 km/h 16.1 km/h 95% 11.7 mm
18:30 5.1 °C 4.3 °C 1011.7 hPa North 3.2 km/h 16.1 km/h 95% 11.7 mm
18:35 5 °C 4.3 °C 1012.1 hPa NNE 8 km/h 17.7 km/h 95% 11.7 mm
18:40 4.9 °C 4.2 °C 1012.1 hPa NNE 1.6 km/h 17.7 km/h 95% 11.7 mm
18:45 4.9 °C 4.2 °C 1012.1 hPa North 8 km/h 22.5 km/h 95% 11.9 mm
18:50 4.9 °C 4.2 °C 1012.1 hPa NE 3.2 km/h 22.5 km/h 95% 11.9 mm
18:55 5 °C 4.3 °C 1012.1 hPa NE 1.6 km/h 17.7 km/h 95% 12.2 mm
19:00 4.9 °C 4.2 °C 1011.7 hPa NNE 3.2 km/h 22.5 km/h 95% 12.2 mm
19:05 4.9 °C 4.2 °C 1011.7 hPa NNE 3.2 km/h 22.5 km/h 95% 12.4 mm
19:10 4.9 °C 4.2 °C 1012.1 hPa NNE 3.2 km/h 20.9 km/h 95% 12.4 mm
19:15 4.9 °C 4.2 °C 1012.1 hPa NNE 4.8 km/h 20.9 km/h 95% 12.7 mm
19:20 4.9 °C 4.2 °C 1012.1 hPa Calm   20.9 km/h 95% 12.7 mm
19:30 4.9 °C 4.2 °C 1012.1 hPa NNE 8 km/h 20.9 km/h 95% 13.2 mm
19:35 4.9 °C 4.2 °C 1012.1 hPa North 3.2 km/h 17.7 km/h 95% 13.2 mm
19:40 4.9 °C 4.2 °C 1012.1 hPa NNE 3.2 km/h 19.3 km/h 95% 13.2 mm
19:45 4.9 °C 4.2 °C 1012.1 hPa North 3.2 km/h 19.3 km/h 95% 13.2 mm
19:50 5 °C 4.3 °C 1012.1 hPa NNE 3.2 km/h 19.3 km/h 95% 13.5 mm
19:55 5 °C 4.3 °C 1012.1 hPa NNE 3.2 km/h 20.9 km/h 95% 13.5 mm
20:00 5 °C 4.3 °C 1012.1 hPa NE 8 km/h 25.7 km/h 95% 13.5 mm
20:05 5 °C 4.3 °C 1012.1 hPa NNE 6.4 km/h 25.7 km/h 95% 13.5 mm
20:10 5 °C 4.3 °C 1012.1 hPa North 4.8 km/h 24.1 km/h 95% 13.5 mm
20:15 5 °C 4.3 °C 1012.1 hPa NNE 4.8 km/h 24.1 km/h 95% 13.5 mm
20:20 5.1 °C 4.3 °C 1012.1 hPa North 3.2 km/h 22.5 km/h 95% 13.7 mm
20:25 5.1 °C 4.3 °C 1012.1 hPa North 3.2 km/h 14.5 km/h 95% 13.7 mm
20:30 5.1 °C 4.3 °C 1012.4 hPa NE 1.6 km/h 14.5 km/h 95% 13.7 mm
20:35 5.1 °C 4.3 °C 1012.4 hPa Calm   17.7 km/h 95% 13.7 mm
20:40 5.1 °C 4.4 °C 1012.4 hPa NNE 3.2 km/h 17.7 km/h 95% 13.7 mm
20:45 5.2 °C 4.4 °C 1012.4 hPa ENE 1.6 km/h 12.9 km/h 95% 14 mm
20:50 5.2 °C 4.4 °C 1012.4 hPa NNE 3.2 km/h 17.7 km/h 95% 14 mm
20:55 5.2 °C 4.4 °C 1012.4 hPa NNE 3.2 km/h 17.7 km/h 95% 14 mm
21:00 5.2 °C 4.5 °C 1012.4 hPa NNE 3.2 km/h 11.3 km/h 95% 14 mm
21:05 5.2 °C 4.5 °C 1012.4 hPa NNE 3.2 km/h 11.3 km/h 95% 14 mm
21:15 5.3 °C 4.6 °C 1012.4 hPa NNE 3.2 km/h 14.5 km/h 95% 14 mm
21:20 5.3 °C 4.6 °C 1012.4 hPa NE 1.6 km/h 12.9 km/h 95% 14 mm
21:25 5.3 °C 4.6 °C 1012.4 hPa Calm   12.9 km/h 95% 14 mm
21:30 5.3 °C 4.6 °C 1012.4 hPa NNE 3.2 km/h 12.9 km/h 95% 14 mm
21:35 5.3 °C 4.6 °C 1012.4 hPa NE 3.2 km/h 12.9 km/h 95% 14.2 mm
21:40 5.3 °C 4.6 °C 1012.4 hPa NNE 1.6 km/h 14.5 km/h 95% 14.2 mm
21:45 5.3 °C 4.6 °C 1012.4 hPa NNE 3.2 km/h 16.1 km/h 95% 14.2 mm
21:50 5.3 °C 4.6 °C 1012.4 hPa NNE 1.6 km/h 16.1 km/h 95% 14.2 mm
21:55 5.3 °C 4.6 °C 1012.8 hPa Calm   16.1 km/h 95% 14.2 mm
22:00 5.4 °C 4.7 °C 1012.8 hPa NNE 3.2 km/h 11.3 km/h 95% 14.5 mm
22:05 5.4 °C 4.7 °C 1012.8 hPa NNE 3.2 km/h 12.9 km/h 95% 14.5 mm
22:10 5.4 °C 4.7 °C 1012.4 hPa Calm   12.9 km/h 95% 14.5 mm
22:15 5.4 °C 4.7 °C 1012.4 hPa NNE 3.2 km/h 11.3 km/h 95% 14.5 mm
22:20 5.5 °C 4.8 °C 1012.4 hPa NNE 1.6 km/h 11.3 km/h 95% 14.5 mm
22:25 5.5 °C 4.8 °C 1012.4 hPa NNE 1.6 km/h 11.3 km/h 95% 14.5 mm
22:35 5.5 °C 4.8 °C 1012.4 hPa NNE 3.2 km/h 14.5 km/h 95% 14.7 mm
22:40 5.5 °C 4.8 °C 1012.4 hPa Calm   11.3 km/h 95% 14.7 mm
22:45 5.6 °C 4.8 °C 1012.4 hPa NE 1.6 km/h 11.3 km/h 95% 14.7 mm
22:50 5.6 °C 4.8 °C 1012.1 hPa NNE 1.6 km/h 11.3 km/h 95% 15 mm
22:55 5.6 °C 4.8 °C 1012.4 hPa Calm   11.3 km/h 95% 15 mm
23:00 5.6 °C 4.8 °C 1012.4 hPa NNE 4.8 km/h 16.1 km/h 95% 15.2 mm
23:05 5.6 °C 4.8 °C 1012.4 hPa NNE 4.8 km/h 16.1 km/h 95% 15.2 mm
23:10 5.6 °C 4.8 °C 1012.1 hPa NE 1.6 km/h 12.9 km/h 95% 15.5 mm
23:15 5.6 °C 4.8 °C 1012.1 hPa NNE 1.6 km/h 12.9 km/h 95% 15.5 mm
23:20 5.6 °C 4.8 °C 1012.1 hPa NE 3.2 km/h 16.1 km/h 95% 15.5 mm
23:25 5.6 °C 4.8 °C 1012.1 hPa NE 4.8 km/h 16.1 km/h 95% 15.5 mm
23:30 5.6 °C 4.9 °C 1012.1 hPa NNE 4.8 km/h 14.5 km/h 95% 15.5 mm
23:35 5.6 °C 4.8 °C 1012.1 hPa Calm   11.3 km/h 95% 15.5 mm
23:40 5.6 °C 4.9 °C 1012.1 hPa NE 1.6 km/h 19.3 km/h 95% 15.5 mm
23:45 5.6 °C 4.9 °C 1011.7 hPa NNE 3.2 km/h 19.3 km/h 95% 15.5 mm
23:50 5.6 °C 4.9 °C 1012.1 hPa Calm   16.1 km/h 95% 15.5 mm
23:55 5.6 °C 4.9 °C 1012.1 hPa Calm   16.1 km/h 95% 15.5 mm
Westford Weather
Compliments of Weather Underground

 
 
Current Radar Loop:

Copyright © WestfordWeather.net 2007-2014. All rights reserved.